sensor_id;sensor_type;location;lat;lon;timestamp;pressure;altitude;pressure_sealevel;temperature
72035;BMP280;59899;43.412;23.216;2022-07-22T00:00:46;99725.28;;;23.04
72035;BMP280;59899;43.412;23.216;2022-07-22T00:03:11;99723.38;;;22.99
72035;BMP280;59899;43.412;23.216;2022-07-22T00:05:36;99726.34;;;22.96
72035;BMP280;59899;43.412;23.216;2022-07-22T00:08:02;99737.22;;;22.90
72035;BMP280;59899;43.412;23.216;2022-07-22T00:10:27;99728.13;;;22.88
72035;BMP280;59899;43.412;23.216;2022-07-22T00:12:53;99733.31;;;22.86
72035;BMP280;59899;43.412;23.216;2022-07-22T00:15:18;99736.78;;;22.81
72035;BMP280;59899;43.412;23.216;2022-07-22T00:17:44;99741.00;;;22.76
72035;BMP280;59899;43.412;23.216;2022-07-22T00:20:09;99747.91;;;22.72
72035;BMP280;59899;43.412;23.216;2022-07-22T00:22:35;99753.84;;;22.70
72035;BMP280;59899;43.412;23.216;2022-07-22T00:25:01;99742.50;;;22.72
72035;BMP280;59899;43.412;23.216;2022-07-22T00:27:26;99755.06;;;22.69
72035;BMP280;59899;43.412;23.216;2022-07-22T00:29:52;99754.59;;;22.65
72035;BMP280;59899;43.412;23.216;2022-07-22T00:32:17;99760.25;;;22.61
72035;BMP280;59899;43.412;23.216;2022-07-22T00:34:42;99755.13;;;22.58
72035;BMP280;59899;43.412;23.216;2022-07-22T00:37:08;99756.63;;;22.53
72035;BMP280;59899;43.412;23.216;2022-07-22T00:39:33;99758.88;;;22.49
72035;BMP280;59899;43.412;23.216;2022-07-22T00:41:59;99759.88;;;22.46
72035;BMP280;59899;43.412;23.216;2022-07-22T00:44:25;99752.78;;;22.43
72035;BMP280;59899;43.412;23.216;2022-07-22T00:46:50;99758.94;;;22.44
72035;BMP280;59899;43.412;23.216;2022-07-22T00:49:16;99764.09;;;22.42
72035;BMP280;59899;43.412;23.216;2022-07-22T00:51:45;99765.81;;;22.39
72035;BMP280;59899;43.412;23.216;2022-07-22T00:54:10;99770.00;;;22.35
72035;BMP280;59899;43.412;23.216;2022-07-22T00:56:37;99764.81;;;22.37
72035;BMP280;59899;43.412;23.216;2022-07-22T00:59:05;99763.88;;;22.34
72035;BMP280;59899;43.412;23.216;2022-07-22T01:01:31;99766.34;;;22.32
72035;BMP280;59899;43.412;23.216;2022-07-22T01:03:57;99761.94;;;22.29
72035;BMP280;59899;43.412;23.216;2022-07-22T01:06:22;99766.09;;;22.30
72035;BMP280;59899;43.412;23.216;2022-07-22T01:08:48;99766.84;;;22.31
72035;BMP280;59899;43.412;23.216;2022-07-22T01:11:15;99773.97;;;22.28
72035;BMP280;59899;43.412;23.216;2022-07-22T01:13:42;99783.53;;;22.29
72035;BMP280;59899;43.412;23.216;2022-07-22T01:16:09;99790.19;;;22.28
72035;BMP280;59899;43.412;23.216;2022-07-22T01:18:36;99787.28;;;22.20
72035;BMP280;59899;43.412;23.216;2022-07-22T01:21:01;99799.31;;;22.14
72035;BMP280;59899;43.412;23.216;2022-07-22T01:23:27;99790.72;;;22.10
72035;BMP280;59899;43.412;23.216;2022-07-22T01:25:52;99792.25;;;22.05
72035;BMP280;59899;43.412;23.216;2022-07-22T01:28:18;99795.19;;;22.02
72035;BMP280;59899;43.412;23.216;2022-07-22T01:30:44;99796.47;;;21.95
72035;BMP280;59899;43.412;23.216;2022-07-22T01:33:09;99797.16;;;21.90
72035;BMP280;59899;43.412;23.216;2022-07-22T01:35:35;99795.00;;;21.89
72035;BMP280;59899;43.412;23.216;2022-07-22T01:38:00;99801.88;;;21.84
72035;BMP280;59899;43.412;23.216;2022-07-22T01:40:26;99802.13;;;21.81
72035;BMP280;59899;43.412;23.216;2022-07-22T01:42:51;99797.25;;;21.73
72035;BMP280;59899;43.412;23.216;2022-07-22T01:45:17;99800.91;;;21.70
72035;BMP280;59899;43.412;23.216;2022-07-22T01:47:42;99808.78;;;21.68
72035;BMP280;59899;43.412;23.216;2022-07-22T01:50:09;99803.84;;;21.67
72035;BMP280;59899;43.412;23.216;2022-07-22T01:52:35;99806.31;;;21.65
72035;BMP280;59899;43.412;23.216;2022-07-22T01:55:01;99810.03;;;21.62
72035;BMP280;59899;43.412;23.216;2022-07-22T01:57:26;99812.47;;;21.60
72035;BMP280;59899;43.412;23.216;2022-07-22T01:59:52;99811.25;;;21.55
72035;BMP280;59899;43.412;23.216;2022-07-22T02:02:17;99819.84;;;21.54
72035;BMP280;59899;43.412;23.216;2022-07-22T02:04:43;99817.91;;;21.49
72035;BMP280;59899;43.412;23.216;2022-07-22T02:07:08;99825.97;;;21.49
72035;BMP280;59899;43.412;23.216;2022-07-22T02:09:34;99821.03;;;21.47
72035;BMP280;59899;43.412;23.216;2022-07-22T02:11:59;99819.34;;;21.44
72035;BMP280;59899;43.412;23.216;2022-07-22T02:14:24;99827.19;;;21.42
72035;BMP280;59899;43.412;23.216;2022-07-22T02:16:50;99823.50;;;21.40
72035;BMP280;59899;43.412;23.216;2022-07-22T02:19:15;99828.91;;;21.40
72035;BMP280;59899;43.412;23.216;2022-07-22T02:21:41;99833.34;;;21.37
72035;BMP280;59899;43.412;23.216;2022-07-22T02:24:06;99832.59;;;21.37
72035;BMP280;59899;43.412;23.216;2022-07-22T02:26:31;99835.28;;;21.31
72035;BMP280;59899;43.412;23.216;2022-07-22T02:28:57;99840.44;;;21.29
72035;BMP280;59899;43.412;23.216;2022-07-22T02:31:23;99841.16;;;21.24
72035;BMP280;59899;43.412;23.216;2022-07-22T02:33:49;99838.22;;;21.22
72035;BMP280;59899;43.412;23.216;2022-07-22T02:36:14;99843.84;;;21.18
72035;BMP280;59899;43.412;23.216;2022-07-22T02:38:39;99849.47;;;21.15
72035;BMP280;59899;43.412;23.216;2022-07-22T02:41:05;99842.63;;;21.14
72035;BMP280;59899;43.412;23.216;2022-07-22T02:43:32;99849.97;;;21.08
72035;BMP280;59899;43.412;23.216;2022-07-22T02:45:57;99847.00;;;21.00
72035;BMP280;59899;43.412;23.216;2022-07-22T02:48:22;99853.59;;;20.93
72035;BMP280;59899;43.412;23.216;2022-07-22T02:50:48;99854.84;;;20.92
72035;BMP280;59899;43.412;23.216;2022-07-22T02:53:14;99856.53;;;20.90
72035;BMP280;59899;43.412;23.216;2022-07-22T02:55:40;99856.28;;;20.82
72035;BMP280;59899;43.412;23.216;2022-07-22T02:58:07;99846.94;;;20.72
72035;BMP280;59899;43.412;23.216;2022-07-22T03:00:33;99857.44;;;20.65
72035;BMP280;59899;43.412;23.216;2022-07-22T03:02:58;99862.34;;;20.61
72035;BMP280;59899;43.412;23.216;2022-07-22T03:05:24;99855.97;;;20.58
72035;BMP280;59899;43.412;23.216;2022-07-22T03:07:49;99867.97;;;20.57
72035;BMP280;59899;43.412;23.216;2022-07-22T03:10:15;99861.84;;;20.57
72035;BMP280;59899;43.412;23.216;2022-07-22T03:12:40;99865.25;;;20.57
72035;BMP280;59899;43.412;23.216;2022-07-22T03:15:06;99871.91;;;20.56
72035;BMP280;59899;43.412;23.216;2022-07-22T03:17:36;99864.78;;;20.59
72035;BMP280;59899;43.412;23.216;2022-07-22T03:20:06;99870.91;;;20.59
72035;BMP280;59899;43.412;23.216;2022-07-22T03:22:32;99867.00;;;20.60
72035;BMP280;59899;43.412;23.216;2022-07-22T03:24:58;99867.75;;;20.72
72035;BMP280;59899;43.412;23.216;2022-07-22T03:27:24;99877.09;;;20.82
72035;BMP280;59899;43.412;23.216;2022-07-22T03:29:49;99869.78;;;20.88
72035;BMP280;59899;43.412;23.216;2022-07-22T03:32:15;99877.84;;;20.93
72035;BMP280;59899;43.412;23.216;2022-07-22T03:34:41;99875.41;;;20.96
72035;BMP280;59899;43.412;23.216;2022-07-22T03:37:06;99880.84;;;21.01
72035;BMP280;59899;43.412;23.216;2022-07-22T03:39:32;99876.22;;;21.02
72035;BMP280;59899;43.412;23.216;2022-07-22T03:41:57;99881.31;;;21.00
72035;BMP280;59899;43.412;23.216;2022-07-22T03:44:23;99884.75;;;21.00
72035;BMP280;59899;43.412;23.216;2022-07-22T03:46:49;99884.00;;;21.00
72035;BMP280;59899;43.412;23.216;2022-07-22T03:49:14;99882.81;;;21.01
72035;BMP280;59899;43.412;23.216;2022-07-22T03:51:39;99884.28;;;21.02
72035;BMP280;59899;43.412;23.216;2022-07-22T03:54:05;99880.34;;;21.03
72035;BMP280;59899;43.412;23.216;2022-07-22T03:56:31;99893.59;;;21.06
72035;BMP280;59899;43.412;23.216;2022-07-22T03:58:56;99884.78;;;21.06
72035;BMP280;59899;43.412;23.216;2022-07-22T04:01:22;99893.38;;;21.10
72035;BMP280;59899;43.412;23.216;2022-07-22T04:03:47;99890.19;;;21.17
72035;BMP280;59899;43.412;23.216;2022-07-22T04:06:14;99886.75;;;21.22
72035;BMP280;59899;43.412;23.216;2022-07-22T04:08:40;99896.28;;;21.23
72035;BMP280;59899;43.412;23.216;2022-07-22T04:11:06;99893.38;;;21.26
72035;BMP280;59899;43.412;23.216;2022-07-22T04:13:31;99895.59;;;21.28
72035;BMP280;59899;43.412;23.216;2022-07-22T04:15:56;99902.97;;;21.33
72035;BMP280;59899;43.412;23.216;2022-07-22T04:18:22;99899.28;;;21.42
72035;BMP280;59899;43.412;23.216;2022-07-22T04:20:47;99907.13;;;21.51
72035;BMP280;59899;43.412;23.216;2022-07-22T04:23:13;99907.88;;;21.57
72035;BMP280;59899;43.412;23.216;2022-07-22T04:25:38;99912.28;;;21.65
72035;BMP280;59899;43.412;23.216;2022-07-22T04:28:04;99918.44;;;21.71
72035;BMP280;59899;43.412;23.216;2022-07-22T04:30:29;99925.31;;;21.78
72035;BMP280;59899;43.412;23.216;2022-07-22T04:32:55;99925.53;;;21.86
72035;BMP280;59899;43.412;23.216;2022-07-22T04:35:20;99930.44;;;21.93
72035;BMP280;59899;43.412;23.216;2022-07-22T04:37:46;99932.88;;;22.02
72035;BMP280;59899;43.412;23.216;2022-07-22T04:40:11;99939.97;;;22.16
72035;BMP280;59899;43.412;23.216;2022-07-22T04:42:37;99940.69;;;22.28
72035;BMP280;59899;43.412;23.216;2022-07-22T04:45:03;99934.75;;;22.40
72035;BMP280;59899;43.412;23.216;2022-07-22T04:47:28;99946.00;;;22.55
72035;BMP280;59899;43.412;23.216;2022-07-22T04:49:54;99949.91;;;22.65
72035;BMP280;59899;43.412;23.216;2022-07-22T04:52:19;99952.78;;;22.79
72035;BMP280;59899;43.412;23.216;2022-07-22T04:54:45;99945.88;;;22.89
72035;BMP280;59899;43.412;23.216;2022-07-22T04:57:10;99937.97;;;22.96
72035;BMP280;59899;43.412;23.216;2022-07-22T04:59:36;99952.84;;;23.08
72035;BMP280;59899;43.412;23.216;2022-07-22T05:02:02;99949.63;;;23.21
72035;BMP280;59899;43.412;23.216;2022-07-22T05:04:28;99943.88;;;23.36
72035;BMP280;59899;43.412;23.216;2022-07-22T05:06:54;99950.38;;;23.51
72035;BMP280;59899;43.412;23.216;2022-07-22T05:09:19;99958.38;;;23.68
72035;BMP280;59899;43.412;23.216;2022-07-22T05:11:45;99962.19;;;23.84
72035;BMP280;59899;43.412;23.216;2022-07-22T05:14:10;99958.13;;;23.96
72035;BMP280;59899;43.412;23.216;2022-07-22T05:16:36;99963.13;;;24.11
72035;BMP280;59899;43.412;23.216;2022-07-22T05:19:05;99961.56;;;24.21
72035;BMP280;59899;43.412;23.216;2022-07-22T05:21:32;99965.63;;;24.33
72035;BMP280;59899;43.412;23.216;2022-07-22T05:23:57;99971.63;;;24.44
72035;BMP280;59899;43.412;23.216;2022-07-22T05:26:23;99976.94;;;24.56
72035;BMP280;59899;43.412;23.216;2022-07-22T05:28:49;99984.72;;;24.65
72035;BMP280;59899;43.412;23.216;2022-07-22T05:31:15;99976.66;;;24.78
72035;BMP280;59899;43.412;23.216;2022-07-22T05:33:41;99983.91;;;24.88
72035;BMP280;59899;43.412;23.216;2022-07-22T05:36:07;99992.84;;;25.02
72035;BMP280;59899;43.412;23.216;2022-07-22T05:38:35;99996.00;;;25.06
72035;BMP280;59899;43.412;23.216;2022-07-22T05:41:01;99991.66;;;25.16
72035;BMP280;59899;43.412;23.216;2022-07-22T05:43:27;99981.91;;;25.26
72035;BMP280;59899;43.412;23.216;2022-07-22T05:45:52;99991.53;;;25.40
72035;BMP280;59899;43.412;23.216;2022-07-22T05:48:18;99985.31;;;25.45
72035;BMP280;59899;43.412;23.216;2022-07-22T05:50:44;99989.31;;;25.58
72035;BMP280;59899;43.412;23.216;2022-07-22T05:53:09;99995.78;;;25.68
72035;BMP280;59899;43.412;23.216;2022-07-22T05:55:35;99998.41;;;25.86
72035;BMP280;59899;43.412;23.216;2022-07-22T05:58:00;99999.19;;;26.00
72035;BMP280;59899;43.412;23.216;2022-07-22T06:00:26;99995.22;;;26.14
72035;BMP280;59899;43.412;23.216;2022-07-22T06:02:51;99997.28;;;26.34
72035;BMP280;59899;43.412;23.216;2022-07-22T06:05:16;99995.50;;;26.50
72035;BMP280;59899;43.412;23.216;2022-07-22T06:07:42;100000.63;;;26.67
72035;BMP280;59899;43.412;23.216;2022-07-22T06:10:07;100001.91;;;26.86
72035;BMP280;59899;43.412;23.216;2022-07-22T06:12:33;99996.22;;;26.98
72035;BMP280;59899;43.412;23.216;2022-07-22T06:14:58;100012.00;;;26.99
72035;BMP280;59899;43.412;23.216;2022-07-22T06:17:24;100005.84;;;26.99
72035;BMP280;59899;43.412;23.216;2022-07-22T06:19:49;100002.84;;;27.10
72035;BMP280;59899;43.412;23.216;2022-07-22T06:22:14;100003.94;;;27.27
72035;BMP280;59899;43.412;23.216;2022-07-22T06:24:42;100002.22;;;27.37
72035;BMP280;59899;43.412;23.216;2022-07-22T06:27:08;100000.66;;;27.50
72035;BMP280;59899;43.412;23.216;2022-07-22T06:29:33;100005.50;;;27.64
72035;BMP280;59899;43.412;23.216;2022-07-22T06:31:59;100002.28;;;27.73
72035;BMP280;59899;43.412;23.216;2022-07-22T06:34:24;100012.06;;;27.69
72035;BMP280;59899;43.412;23.216;2022-07-22T06:36:50;100005.16;;;27.68
72035;BMP280;59899;43.412;23.216;2022-07-22T06:39:15;100003.75;;;27.74
72035;BMP280;59899;43.412;23.216;2022-07-22T06:41:40;100008.41;;;27.87
72035;BMP280;59899;43.412;23.216;2022-07-22T06:44:06;100001.72;;;27.96
72035;BMP280;59899;43.412;23.216;2022-07-22T06:46:31;100001.81;;;28.18
72035;BMP280;59899;43.412;23.216;2022-07-22T06:48:57;100007.56;;;28.35
72035;BMP280;59899;43.412;23.216;2022-07-22T06:51:22;100000.66;;;28.50
72035;BMP280;59899;43.412;23.216;2022-07-22T06:53:47;100000.91;;;28.67
72035;BMP280;59899;43.412;23.216;2022-07-22T06:56:13;100010.00;;;28.69
72035;BMP280;59899;43.412;23.216;2022-07-22T06:58:39;99989.69;;;28.78
72035;BMP280;59899;43.412;23.216;2022-07-22T07:01:04;100000.41;;;28.99
72035;BMP280;59899;43.412;23.216;2022-07-22T07:03:29;100002.78;;;29.17
72035;BMP280;59899;43.412;23.216;2022-07-22T07:05:55;100005.91;;;29.29
72035;BMP280;59899;43.412;23.216;2022-07-22T07:08:20;99999.50;;;29.41
72035;BMP280;59899;43.412;23.216;2022-07-22T07:10:46;100006.44;;;29.58
72035;BMP280;59899;43.412;23.216;2022-07-22T07:13:11;100002.41;;;29.59
72035;BMP280;59899;43.412;23.216;2022-07-22T07:15:37;100000.00;;;29.78
72035;BMP280;59899;43.412;23.216;2022-07-22T07:18:02;99997.94;;;29.93
72035;BMP280;59899;43.412;23.216;2022-07-22T07:20:28;99994.50;;;30.01
72035;BMP280;59899;43.412;23.216;2022-07-22T07:22:54;99999.66;;;30.21
72035;BMP280;59899;43.412;23.216;2022-07-22T07:25:19;99993.94;;;30.42
72035;BMP280;59899;43.412;23.216;2022-07-22T07:27:45;100004.66;;;30.47
72035;BMP280;59899;43.412;23.216;2022-07-22T07:30:11;100001.63;;;30.68
72035;BMP280;59899;43.412;23.216;2022-07-22T07:32:37;99999.47;;;30.59
72035;BMP280;59899;43.412;23.216;2022-07-22T07:35:04;100002.94;;;30.60
72035;BMP280;59899;43.412;23.216;2022-07-22T07:37:29;99998.09;;;30.75
72035;BMP280;59899;43.412;23.216;2022-07-22T07:39:55;99997.69;;;30.79
72035;BMP280;59899;43.412;23.216;2022-07-22T07:42:20;99992.72;;;30.85
72035;BMP280;59899;43.412;23.216;2022-07-22T07:44:46;99993.97;;;30.91
72035;BMP280;59899;43.412;23.216;2022-07-22T07:47:11;99996.69;;;30.91
72035;BMP280;59899;43.412;23.216;2022-07-22T07:49:43;99993.09;;;31.06
72035;BMP280;59899;43.412;23.216;2022-07-22T07:52:08;99994.72;;;31.09
72035;BMP280;59899;43.412;23.216;2022-07-22T07:54:34;99992.50;;;31.15
72035;BMP280;59899;43.412;23.216;2022-07-22T07:56:59;99990.25;;;31.21
72035;BMP280;59899;43.412;23.216;2022-07-22T07:59:24;99987.97;;;31.27
72035;BMP280;59899;43.412;23.216;2022-07-22T08:01:50;99991.78;;;31.49
72035;BMP280;59899;43.412;23.216;2022-07-22T08:04:15;99996.06;;;31.42
72035;BMP280;59899;43.412;23.216;2022-07-22T08:06:41;99992.63;;;31.59
72035;BMP280;59899;43.412;23.216;2022-07-22T08:09:06;99997.44;;;31.68
72035;BMP280;59899;43.412;23.216;2022-07-22T08:11:32;99995.06;;;31.82
72035;BMP280;59899;43.412;23.216;2022-07-22T08:13:57;99996.03;;;31.94
72035;BMP280;59899;43.412;23.216;2022-07-22T08:16:23;99986.97;;;32.01
72035;BMP280;59899;43.412;23.216;2022-07-22T08:18:48;99995.44;;;32.39
72035;BMP280;59899;43.412;23.216;2022-07-22T08:21:14;99989.31;;;32.58
72035;BMP280;59899;43.412;23.216;2022-07-22T08:23:39;99983.72;;;32.75
72035;BMP280;59899;43.412;23.216;2022-07-22T08:26:05;99980.84;;;32.83
72035;BMP280;59899;43.412;23.216;2022-07-22T08:28:30;99982.34;;;33.03
72035;BMP280;59899;43.412;23.216;2022-07-22T08:30:56;99985.25;;;33.24
72035;BMP280;59899;43.412;23.216;2022-07-22T08:33:21;99989.31;;;33.33
72035;BMP280;59899;43.412;23.216;2022-07-22T08:35:47;99989.59;;;33.56
72035;BMP280;59899;43.412;23.216;2022-07-22T08:38:12;99989.56;;;33.85
72035;BMP280;59899;43.412;23.216;2022-07-22T08:40:38;99993.09;;;34.16
72035;BMP280;59899;43.412;23.216;2022-07-22T08:43:04;99991.69;;;34.46
72035;BMP280;59899;43.412;23.216;2022-07-22T08:45:30;99996.06;;;34.60
72035;BMP280;59899;43.412;23.216;2022-07-22T08:47:56;99992.34;;;34.56
72035;BMP280;59899;43.412;23.216;2022-07-22T08:50:22;99999.56;;;34.30
72035;BMP280;59899;43.412;23.216;2022-07-22T08:52:48;99995.28;;;34.48
72035;BMP280;59899;43.412;23.216;2022-07-22T08:55:13;99997.97;;;34.67
72035;BMP280;59899;43.412;23.216;2022-07-22T08:57:44;99992.47;;;34.67
72035;BMP280;59899;43.412;23.216;2022-07-22T09:00:12;100014.66;;;34.60
72035;BMP280;59899;43.412;23.216;2022-07-22T09:02:39;99998.16;;;34.50
72035;BMP280;59899;43.412;23.216;2022-07-22T09:05:09;100003.72;;;34.71
72035;BMP280;59899;43.412;23.216;2022-07-22T09:07:39;99994.91;;;34.63
72035;BMP280;59899;43.412;23.216;2022-07-22T09:10:07;99995.00;;;34.96
72035;BMP280;59899;43.412;23.216;2022-07-22T09:12:33;100003.28;;;35.29
72035;BMP280;59899;43.412;23.216;2022-07-22T09:15:00;100000.47;;;35.38
72035;BMP280;59899;43.412;23.216;2022-07-22T09:17:35;100000.97;;;35.46
72035;BMP280;59899;43.412;23.216;2022-07-22T09:20:03;99997.75;;;35.17
72035;BMP280;59899;43.412;23.216;2022-07-22T09:22:34;99996.19;;;35.47
72035;BMP280;59899;43.412;23.216;2022-07-22T09:25:21;99990.84;;;35.60
72035;BMP280;59899;43.412;23.216;2022-07-22T09:27:49;99997.69;;;35.71
72035;BMP280;59899;43.412;23.216;2022-07-22T09:30:18;99996.47;;;35.63
72035;BMP280;59899;43.412;23.216;2022-07-22T09:32:44;99998.47;;;35.83
72035;BMP280;59899;43.412;23.216;2022-07-22T09:35:10;99988.16;;;36.07
72035;BMP280;59899;43.412;23.216;2022-07-22T09:37:56;99990.19;;;35.95
72035;BMP280;59899;43.412;23.216;2022-07-22T09:40:27;99987.66;;;35.99
72035;BMP280;59899;43.412;23.216;2022-07-22T09:42:57;99982.41;;;36.14
72035;BMP280;59899;43.412;23.216;2022-07-22T09:45:25;99986.44;;;36.48
72035;BMP280;59899;43.412;23.216;2022-07-22T09:47:54;99990.91;;;35.95
72035;BMP280;59899;43.412;23.216;2022-07-22T09:50:27;99986.72;;;36.06
72035;BMP280;59899;43.412;23.216;2022-07-22T09:52:55;99984.53;;;36.28
72035;BMP280;59899;43.412;23.216;2022-07-22T09:55:23;99977.94;;;36.21
72035;BMP280;59899;43.412;23.216;2022-07-22T09:57:50;99980.34;;;36.27
72035;BMP280;59899;43.412;23.216;2022-07-22T10:00:21;99983.94;;;36.41
72035;BMP280;59899;43.412;23.216;2022-07-22T10:02:52;99977.44;;;36.48
72035;BMP280;59899;43.412;23.216;2022-07-22T10:05:23;99983.56;;;36.58
72035;BMP280;59899;43.412;23.216;2022-07-22T10:07:49;99979.91;;;36.67
72035;BMP280;59899;43.412;23.216;2022-07-22T10:10:28;99979.13;;;37.01
72035;BMP280;59899;43.412;23.216;2022-07-22T10:12:55;99972.97;;;37.28
72035;BMP280;59899;43.412;23.216;2022-07-22T10:15:23;99978.03;;;37.45
72035;BMP280;59899;43.412;23.216;2022-07-22T10:17:52;99969.44;;;37.53
72035;BMP280;59899;43.412;23.216;2022-07-22T10:20:23;99973.34;;;37.47
72035;BMP280;59899;43.412;23.216;2022-07-22T10:22:50;99973.38;;;37.75
72035;BMP280;59899;43.412;23.216;2022-07-22T10:25:17;99966.25;;;37.97
72035;BMP280;59899;43.412;23.216;2022-07-22T10:28:03;99954.63;;;38.28
72035;BMP280;59899;43.412;23.216;2022-07-22T10:30:35;99962.94;;;38.14
72035;BMP280;59899;43.412;23.216;2022-07-22T10:33:20;99965.16;;;38.31
72035;BMP280;59899;43.412;23.216;2022-07-22T10:36:00;99960.72;;;38.53
72035;BMP280;59899;43.412;23.216;2022-07-22T10:38:26;99960.59;;;38.65
72035;BMP280;59899;43.412;23.216;2022-07-22T10:40:57;99962.41;;;38.74
72035;BMP280;59899;43.412;23.216;2022-07-22T10:43:25;99963.28;;;38.92
72035;BMP280;59899;43.412;23.216;2022-07-22T10:45:52;99949.56;;;39.25
72035;BMP280;59899;43.412;23.216;2022-07-22T10:48:46;99947.75;;;39.47
72035;BMP280;59899;43.412;23.216;2022-07-22T10:53:46;99954.66;;;39.46
72035;BMP280;59899;43.412;23.216;2022-07-22T10:56:23;99949.38;;;39.68
72035;BMP280;59899;43.412;23.216;2022-07-22T10:58:56;99948.31;;;39.60
72035;BMP280;59899;43.412;23.216;2022-07-22T11:01:28;99944.63;;;39.55
72035;BMP280;59899;43.412;23.216;2022-07-22T11:03:54;99948.69;;;39.36
72035;BMP280;59899;43.412;23.216;2022-07-22T11:06:30;99946.03;;;39.09
72035;BMP280;59899;43.412;23.216;2022-07-22T11:08:59;99943.03;;;39.19
72035;BMP280;59899;43.412;23.216;2022-07-22T11:11:38;99939.28;;;39.28
72035;BMP280;59899;43.412;23.216;2022-07-22T11:14:11;99940.63;;;39.58
72035;BMP280;59899;43.412;23.216;2022-07-22T11:16:36;99934.13;;;39.69
72035;BMP280;59899;43.412;23.216;2022-07-22T11:19:02;99932.63;;;39.82
72035;BMP280;59899;43.412;23.216;2022-07-22T11:21:33;99931.88;;;40.14
72035;BMP280;59899;43.412;23.216;2022-07-22T11:24:01;99935.50;;;40.35
72035;BMP280;59899;43.412;23.216;2022-07-22T11:26:48;99929.06;;;40.48
72035;BMP280;59899;43.412;23.216;2022-07-22T11:29:25;99933.63;;;40.24
72035;BMP280;59899;43.412;23.216;2022-07-22T11:31:51;99926.09;;;40.26
72035;BMP280;59899;43.412;23.216;2022-07-22T11:34:16;99929.38;;;40.38
72035;BMP280;59899;43.412;23.216;2022-07-22T11:36:44;99923.81;;;40.38
72035;BMP280;59899;43.412;23.216;2022-07-22T11:39:12;99926.72;;;40.07
72035;BMP280;59899;43.412;23.216;2022-07-22T11:41:39;99929.22;;;39.83
72035;BMP280;59899;43.412;23.216;2022-07-22T11:44:05;99926.84;;;39.60
72035;BMP280;59899;43.412;23.216;2022-07-22T11:46:41;99919.31;;;39.47
72035;BMP280;59899;43.412;23.216;2022-07-22T11:49:08;99929.63;;;39.60
72035;BMP280;59899;43.412;23.216;2022-07-22T11:51:35;99926.16;;;39.77
72035;BMP280;59899;43.412;23.216;2022-07-22T11:54:02;99916.69;;;40.00
72035;BMP280;59899;43.412;23.216;2022-07-22T11:56:28;99908.28;;;39.98
72035;BMP280;59899;43.412;23.216;2022-07-22T11:58:54;99911.88;;;40.00
72035;BMP280;59899;43.412;23.216;2022-07-22T12:01:22;99909.66;;;40.14
72035;BMP280;59899;43.412;23.216;2022-07-22T12:03:51;99909.50;;;40.10
72035;BMP280;59899;43.412;23.216;2022-07-22T12:06:18;99913.28;;;40.01
72035;BMP280;59899;43.412;23.216;2022-07-22T12:08:55;99913.38;;;40.03
72035;BMP280;59899;43.412;23.216;2022-07-22T12:11:24;99916.94;;;39.88
72035;BMP280;59899;43.412;23.216;2022-07-22T12:13:51;99904.50;;;39.74
72035;BMP280;59899;43.412;23.216;2022-07-22T12:16:28;99917.19;;;39.30
72035;BMP280;59899;43.412;23.216;2022-07-22T12:19:03;99910.75;;;39.10
72035;BMP280;59899;43.412;23.216;2022-07-22T12:21:31;99907.53;;;38.70
72035;BMP280;59899;43.412;23.216;2022-07-22T12:24:06;99899.66;;;38.65
72035;BMP280;59899;43.412;23.216;2022-07-22T12:26:48;99896.66;;;38.45
72035;BMP280;59899;43.412;23.216;2022-07-22T12:29:19;99898.09;;;38.33
72035;BMP280;59899;43.412;23.216;2022-07-22T12:31:53;99895.66;;;38.25
72035;BMP280;59899;43.412;23.216;2022-07-22T12:34:34;99888.06;;;38.39
72035;BMP280;59899;43.412;23.216;2022-07-22T12:37:20;99890.22;;;38.56
72035;BMP280;59899;43.412;23.216;2022-07-22T12:42:40;99874.59;;;38.34
72035;BMP280;59899;43.412;23.216;2022-07-22T12:45:11;99876.72;;;38.20
72035;BMP280;59899;43.412;23.216;2022-07-22T12:53:06;99874.28;;;37.98
72035;BMP280;59899;43.412;23.216;2022-07-22T12:55:33;99873.06;;;38.01
72035;BMP280;59899;43.412;23.216;2022-07-22T12:57:59;99875.38;;;38.07
72035;BMP280;59899;43.412;23.216;2022-07-22T13:00:33;99868.63;;;38.10
72035;BMP280;59899;43.412;23.216;2022-07-22T13:02:58;99873.84;;;38.18
72035;BMP280;59899;43.412;23.216;2022-07-22T13:05:25;99867.88;;;38.23
72035;BMP280;59899;43.412;23.216;2022-07-22T13:07:51;99872.59;;;38.21
72035;BMP280;59899;43.412;23.216;2022-07-22T13:10:19;99860.81;;;38.06
72035;BMP280;59899;43.412;23.216;2022-07-22T13:12:45;99859.50;;;38.07
72035;BMP280;59899;43.412;23.216;2022-07-22T13:15:11;99868.81;;;38.14
72035;BMP280;59899;43.412;23.216;2022-07-22T13:17:37;99859.06;;;38.13
72035;BMP280;59899;43.412;23.216;2022-07-22T13:20:04;99866.16;;;38.16
72035;BMP280;59899;43.412;23.216;2022-07-22T13:22:30;99866.34;;;38.20
72035;BMP280;59899;43.412;23.216;2022-07-22T13:24:55;99862.44;;;38.25
72035;BMP280;59899;43.412;23.216;2022-07-22T13:27:20;99852.97;;;38.30
72035;BMP280;59899;43.412;23.216;2022-07-22T13:29:46;99854.53;;;38.33
72035;BMP280;59899;43.412;23.216;2022-07-22T13:32:11;99857.22;;;38.18
72035;BMP280;59899;43.412;23.216;2022-07-22T13:34:37;99854.19;;;37.98
72035;BMP280;59899;43.412;23.216;2022-07-22T13:37:03;99854.38;;;37.88
72035;BMP280;59899;43.412;23.216;2022-07-22T13:39:28;99864.66;;;37.86
72035;BMP280;59899;43.412;23.216;2022-07-22T13:41:53;99856.03;;;37.93
72035;BMP280;59899;43.412;23.216;2022-07-22T13:44:19;99850.50;;;37.93
72035;BMP280;59899;43.412;23.216;2022-07-22T13:46:45;99844.38;;;37.95
72035;BMP280;59899;43.412;23.216;2022-07-22T13:49:11;99848.34;;;38.05
72035;BMP280;59899;43.412;23.216;2022-07-22T13:51:37;99848.44;;;38.07
72035;BMP280;59899;43.412;23.216;2022-07-22T13:54:02;99852.19;;;38.14
72035;BMP280;59899;43.412;23.216;2022-07-22T13:56:28;99850.38;;;38.05
72035;BMP280;59899;43.412;23.216;2022-07-22T13:58:53;99846.38;;;38.08
72035;BMP280;59899;43.412;23.216;2022-07-22T14:01:18;99840.50;;;38.15
72035;BMP280;59899;43.412;23.216;2022-07-22T14:03:44;99845.09;;;38.25